Beulah, Wyoming
Current Conditions -  °F | °C
As of 3:15 AM on Wednesday 22 Oct 2014 (Local Time) from KSPF Reporting Station
Clear Clear  
Wind Chill: 54°   Ceiling: Unl
Heat Index: 54°   Visibility: 10mi
Dew Point: 32°   Wind: 10mph
Humidity: 44%   Direction: 280°W
Pressure: 29.92"   Gusts: NA
Location:  44.54°N, 104.09°W
Report Text: KSPF 220915Z AUTO 28009KT 10SM CLR 12/00 A2992 RMK AO2
Loading
Personal Weather Stations






























Interactive Weather Map
Tropical Storm Tracking
New forecast layout! Learn more

10-Day Weather Forecast

Advertisements
Track Severe Weather on mobile